Here is the Quick Look data you requested

The Data originates at the National Weather Service, and is made available here by the UAlbany Department of Atmospheric and Environmental Sciences

Surface Observations

KCPK 081255Z AUTO 00000KT 10SM CLR M01/M04 A3052 RMK AO2 T10151036=
KJYO 081255Z AUTO 00000KT 10SM CLR M02/M06 A3052 RMK AO2=
KMTV 081255Z AUTO 00000KT 10SM CLR M05/M07 A3054 RMK AO2 T10501073=
KPTB 081255Z AUTO 00000KT 10SM CLR M01/M03 A3052 RMK AO2 T10061032=